This is the latest recevied weather packets stored in our database for station/object JR5YHL-13. If no packets are shown the sender has not sent any weather packets the latest 1 day(s).
| Time | Temp. | Humidity | Pressure | Rain* | Wind** | Luminosity | Snow |
|---|---|---|---|---|---|---|---|
| 1778019581 | 14.44° C | 80% | 1020.4 hPa | 0 mm | 1.79 m/s, 225° | - | - |
| 1778018983 | 14.44° C | 81% | 1020.3 hPa | 0 mm | 1.79 m/s, 248° | - | - |
| 1778018386 | 14.44° C | 83% | 1020.3 hPa | 0 mm | 1.34 m/s, 180° | - | - |
| 1778017788 | 13.89° C | 86% | 1020.1 hPa | 0 mm | 1.34 m/s, 270° | - | - |
| 1778017190 | 13.33° C | 86% | 1020.2 hPa | 0 mm | 1.79 m/s, 270° | - | - |
| 1778016592 | 13.33° C | 87% | 1020.3 hPa | 0 mm | 1.79 m/s, 270° | - | - |
| 1778015994 | 12.78° C | 88% | 1020.2 hPa | 0 mm | 1.79 m/s, 270° | - | - |
| 1778015397 | 12.78° C | 88% | 1020.1 hPa | 0 mm | 1.34 m/s, 225° | - | - |
| 1778014799 | 12.78° C | 89% | 1020.2 hPa | 0 mm | 1.79 m/s, 180° | - | - |
| 1778014201 | 12.22° C | 90% | 1020.2 hPa | 0 mm | 1.79 m/s, 0° | - | - |
| 1778013603 | 12.22° C | 90% | 1020.3 hPa | 0 mm | 1.34 m/s, 270° | - | - |
| 1778013005 | 12.22° C | 90% | 1020.2 hPa | 0 mm | 2.24 m/s, 270° | - | - |
| 1778012408 | 12.22° C | 89% | 1020.1 hPa | 0 mm | 1.34 m/s, 248° | - | - |
| 1778011810 | 12.22° C | 89% | 1020.2 hPa | 0 mm | 1.34 m/s, 225° | - | - |
| 1778011212 | 12.22° C | 87% | 1019.9 hPa | 0 mm | 0.89 m/s, 225° | - | - |
| 1778010614 | 12.22° C | 86% | 1020 hPa | 0 mm | 1.34 m/s, 270° | - | - |
| 1778010017 | 12.22° C | 85% | 1020 hPa | 0 mm | 1.79 m/s, 270° | - | - |
| 1778009419 | 12.22° C | 85% | 1019.9 hPa | 0 mm | 1.34 m/s, 180° | - | - |
| 1778008822 | 12.22° C | 85% | 1020 hPa | 0 mm | 0.89 m/s, 270° | - | - |
| 1778008224 | 12.78° C | 83% | 1019.6 hPa | 0 mm | 0.89 m/s, 225° | - | - |
| 1778007626 | 12.78° C | 82% | 1019.5 hPa | 0 mm | 0 m/s | - | - |
| 1778007028 | 12.78° C | 80% | 1019.6 hPa | 0 mm | 0.89 m/s, 248° | - | - |
| 1778006431 | 12.78° C | 78% | 1019.8 hPa | 0 mm | 0.89 m/s, 225° | - | - |
| 1778005833 | 12.78° C | 79% | 1020.1 hPa | 0 mm | 1.34 m/s, 270° | - | - |
| 1778005235 | 12.78° C | 78% | 1020.1 hPa | 0 mm | 1.79 m/s, 203° | - | - |
* Rain latest hour (hover to see other rain measurements)
** Current wind speed in m/s (hover to see current wind gust speed)